NCAR-RAP Real-Time Weather Data

Output produced by METARs form (23 February 2020  02:36 UTC)
found at http://weather.rap.ucar.edu/surface/
 
KHVR 230153Z AUTO 31015KT 10SM SCT095 04/M03 A2989 RMK AO2 PK WND 29026/0128 SLP141 T00391033